createdAt,value
2022-09-09T00:00:44.763Z,2.20
2022-09-09T00:03:14.485Z,2.13
2022-09-09T00:05:41.047Z,1.90
2022-09-09T00:08:15.314Z,2.23
2022-09-09T00:10:42.902Z,1.80
2022-09-09T00:13:21.516Z,2.27
2022-09-09T00:15:54.045Z,2.27
2022-09-09T00:18:26.313Z,1.80
2022-09-09T00:21:11.292Z,3.30
2022-09-09T00:23:44.503Z,2.23
2022-09-09T00:26:10.957Z,2.43
2022-09-09T00:28:40.964Z,2.37
2022-09-09T00:31:13.915Z,2.33
2022-09-09T00:33:41.328Z,2.63
2022-09-09T00:36:11.744Z,3.27
2022-09-09T00:38:42.413Z,2.10
2022-09-09T00:41:11.993Z,2.33
2022-09-09T00:43:40.203Z,2.40
2022-09-09T00:46:15.741Z,2.53
2022-09-09T00:48:42.337Z,2.33
2022-09-09T00:51:29.066Z,1.73
2022-09-09T00:53:55.539Z,1.70
2022-09-09T00:56:26.694Z,2.13
2022-09-09T00:59:01.351Z,1.70
2022-09-09T01:01:28.004Z,2.10
2022-09-09T01:03:55.183Z,1.80
2022-09-09T01:06:27.267Z,2.13
2022-09-09T01:09:08.735Z,1.57
2022-09-09T01:11:41.687Z,2.03
2022-09-09T01:14:17.292Z,1.60
2022-09-09T01:16:44.157Z,1.60
2022-09-09T01:19:16.769Z,1.40
2022-09-09T01:21:48.287Z,1.40
2022-09-09T01:24:16.111Z,1.70
2022-09-09T01:27:09.248Z,1.87
2022-09-09T01:29:36.859Z,2.40
2022-09-09T01:32:23.368Z,1.57
2022-09-09T01:34:50.960Z,1.80
2022-09-09T01:37:17.457Z,2.13
2022-09-09T01:39:45.581Z,2.07
2022-09-09T01:42:16.910Z,2.20
2022-09-09T01:44:44.057Z,1.50
2022-09-09T01:47:10.661Z,1.77
2022-09-09T01:49:52.880Z,2.37
2022-09-09T01:52:24.844Z,2.20
2022-09-09T01:54:51.400Z,2.40
2022-09-09T01:57:47.893Z,2.13
2022-09-09T02:00:15.027Z,2.10
2022-09-09T02:03:00.985Z,1.80
2022-09-09T02:05:40.689Z,1.60
2022-09-09T02:08:21.094Z,2.00
2022-09-09T02:11:06.411Z,2.17
2022-09-09T02:13:40.207Z,2.10
2022-09-09T02:16:28.861Z,2.23
2022-09-09T02:18:58.502Z,2.00
2022-09-09T02:21:36.147Z,2.47
2022-09-09T02:24:05.493Z,2.83
2022-09-09T02:26:36.959Z,1.90
2022-09-09T02:29:08.168Z,1.70
2022-09-09T02:31:36.827Z,2.50
2022-09-09T02:34:08.874Z,1.70
2022-09-09T02:36:36.419Z,2.10
2022-09-09T02:39:03.907Z,2.50
2022-09-09T02:41:34.714Z,2.20
2022-09-09T02:44:01.630Z,2.83
2022-09-09T02:46:37.574Z,2.20
2022-09-09T02:49:07.180Z,1.57
2022-09-09T02:51:44.401Z,2.57
2022-09-09T02:54:15.445Z,2.40
2022-09-09T02:56:44.913Z,1.80
2022-09-09T02:59:12.643Z,2.10
2022-09-09T03:01:40.991Z,1.93
2022-09-09T03:04:07.699Z,2.17
2022-09-09T03:06:34.262Z,2.40
2022-09-09T03:09:11.457Z,1.83
2022-09-09T03:11:39.391Z,2.90
2022-09-09T03:14:06.644Z,2.17
2022-09-09T03:16:35.329Z,2.43
2022-09-09T03:19:02.408Z,2.27
2022-09-09T03:21:29.280Z,2.23
2022-09-09T03:23:55.829Z,1.93
2022-09-09T03:26:22.531Z,2.30
2022-09-09T03:28:50.959Z,2.80
2022-09-09T03:31:19.176Z,2.20
2022-09-09T03:33:45.927Z,1.87
2022-09-09T03:36:15.884Z,2.17
2022-09-09T03:38:42.624Z,2.20
2022-09-09T03:41:09.759Z,2.60
2022-09-09T03:43:38.626Z,2.27
2022-09-09T03:46:05.400Z,2.40
2022-09-09T03:48:31.997Z,2.50
2022-09-09T03:51:01.755Z,2.17
2022-09-09T03:53:29.968Z,2.43
2022-09-09T03:56:00.394Z,2.90
2022-09-09T03:58:27.831Z,2.83
2022-09-09T04:01:00.314Z,2.37
2022-09-09T04:03:28.640Z,1.87
2022-09-09T04:05:56.387Z,2.20
2022-09-09T04:08:26.361Z,2.00
2022-09-09T04:10:53.834Z,1.90
2022-09-09T04:13:21.183Z,2.10
2022-09-09T04:15:51.862Z,2.33
2022-09-09T04:18:20.088Z,2.10
2022-09-09T04:20:51.271Z,2.60
2022-09-09T04:23:21.209Z,2.60
2022-09-09T04:25:48.627Z,2.70
2022-09-09T04:28:16.242Z,2.33
2022-09-09T04:30:43.543Z,2.33
2022-09-09T04:33:10.865Z,2.47
2022-09-09T04:35:38.931Z,2.00
2022-09-09T04:38:06.048Z,1.90
2022-09-09T04:40:33.918Z,2.47
2022-09-09T04:43:01.745Z,3.00
2022-09-09T04:45:28.355Z,4.37
2022-09-09T04:47:54.968Z,2.23
2022-09-09T04:50:22.227Z,5.50
2022-09-09T04:53:00.630Z,4.60
2022-09-09T04:55:28.268Z,3.90
2022-09-09T04:57:55.026Z,4.87
2022-09-09T05:00:21.643Z,6.10
2022-09-09T05:02:49.615Z,6.80
2022-09-09T05:05:16.199Z,8.70
2022-09-09T05:07:42.843Z,9.80
2022-09-09T05:10:09.566Z,8.23
2022-09-09T05:12:36.091Z,9.97
2022-09-09T05:15:02.610Z,11.10
2022-09-09T05:17:29.939Z,9.97
2022-09-09T05:19:56.465Z,9.13
2022-09-09T05:22:24.122Z,11.23
2022-09-09T05:24:53.707Z,10.30
2022-09-09T05:27:20.773Z,8.20
2022-09-09T05:29:48.909Z,8.80
2022-09-09T05:32:17.172Z,9.37
2022-09-09T05:34:47.651Z,9.07
2022-09-09T05:37:14.871Z,9.80
2022-09-09T05:39:41.409Z,9.23
2022-09-09T05:42:07.973Z,9.97
2022-09-09T05:44:34.654Z,9.97
2022-09-09T05:47:01.867Z,9.37
2022-09-09T05:49:28.843Z,10.90
2022-09-09T05:51:55.392Z,10.47
2022-09-09T05:54:23.377Z,10.03
2022-09-09T05:56:53.721Z,10.57
2022-09-09T05:59:20.493Z,9.97
2022-09-09T06:01:47.081Z,9.20
2022-09-09T06:04:25.249Z,9.60
2022-09-09T06:06:51.856Z,9.40
2022-09-09T06:09:21.101Z,10.10
2022-09-09T06:11:47.675Z,9.70
2022-09-09T06:14:15.552Z,10.20
2022-09-09T06:16:45.345Z,10.67
2022-09-09T06:19:21.704Z,12.50
2022-09-09T06:21:50.001Z,11.20
2022-09-09T06:24:18.392Z,10.77
2022-09-09T06:26:45.112Z,11.63
2022-09-09T06:29:13.909Z,12.70
2022-09-09T06:31:42.540Z,13.83
2022-09-09T06:34:36.532Z,16.43
2022-09-09T06:37:03.598Z,14.13
2022-09-09T06:39:36.540Z,12.80
2022-09-09T06:42:03.568Z,13.53
2022-09-09T06:44:54.671Z,11.53
2022-09-09T06:47:29.451Z,12.60
2022-09-09T06:49:57.852Z,12.27
2022-09-09T06:52:25.847Z,12.83
2022-09-09T06:54:54.728Z,11.20
2022-09-09T06:57:36.418Z,15.00
2022-09-09T07:00:05.989Z,14.37
2022-09-09T07:02:32.745Z,14.30
2022-09-09T07:04:59.730Z,12.20
2022-09-09T07:07:26.354Z,13.23
2022-09-09T07:09:52.880Z,12.30
2022-09-09T07:12:19.389Z,13.00
2022-09-09T07:14:53.884Z,12.80
2022-09-09T07:17:20.354Z,13.27
2022-09-09T07:19:46.849Z,12.00
2022-09-09T07:22:15.622Z,13.40
2022-09-09T07:24:42.936Z,12.13
2022-09-09T07:27:10.027Z,12.03
2022-09-09T07:29:36.957Z,11.47
2022-09-09T07:32:05.218Z,12.77
2022-09-09T07:34:36.086Z,12.50
2022-09-09T07:37:02.968Z,11.80
2022-09-09T07:39:30.582Z,11.57
2022-09-09T07:41:57.133Z,13.07
2022-09-09T07:44:25.802Z,13.00
2022-09-09T07:47:03.339Z,12.97
2022-09-09T07:49:35.847Z,13.07
2022-09-09T07:54:41.264Z,13.30
2022-09-09T07:57:07.766Z,12.57
2022-09-09T07:59:36.280Z,13.47
2022-09-09T08:02:03.693Z,14.13
2022-09-09T08:04:33.047Z,16.30
2022-09-09T08:07:01.051Z,13.23
2022-09-09T08:09:33.401Z,12.77
2022-09-09T08:12:20.195Z,12.83
2022-09-09T08:14:46.766Z,13.77
2022-09-09T08:17:13.272Z,13.67
2022-09-09T08:19:39.911Z,13.90
2022-09-09T08:22:11.532Z,11.53
2022-09-09T08:24:40.325Z,12.70
2022-09-09T08:27:07.649Z,12.40
2022-09-09T08:29:34.763Z,12.77
2022-09-09T08:32:03.012Z,11.90
2022-09-09T08:34:31.454Z,10.33
2022-09-09T08:37:00.684Z,8.37
2022-09-09T08:39:35.164Z,9.10
2022-09-09T08:42:01.827Z,10.87
2022-09-09T08:44:30.138Z,9.70
2022-09-09T08:47:00.007Z,11.20
2022-09-09T08:49:29.500Z,10.77
2022-09-09T08:51:58.297Z,10.90
2022-09-09T08:54:50.713Z,10.40
2022-09-09T08:57:29.268Z,10.57
2022-09-09T08:59:56.872Z,9.47
2022-09-09T09:02:39.315Z,8.27
2022-09-09T09:05:16.085Z,7.10
2022-09-09T09:07:47.136Z,5.73
2022-09-09T09:10:40.631Z,6.10
2022-09-09T09:13:17.109Z,5.90
2022-09-09T09:15:45.410Z,5.70
2022-09-09T09:18:14.060Z,5.43
2022-09-09T09:20:59.728Z,5.70
2022-09-09T09:23:31.645Z,5.80
2022-09-09T09:26:01.115Z,5.17
2022-09-09T09:28:30.439Z,5.30
2022-09-09T09:31:05.120Z,4.43
2022-09-09T09:33:33.669Z,5.77
2022-09-09T09:36:00.998Z,4.43
2022-09-09T09:41:15.937Z,3.80
2022-09-09T09:43:45.366Z,3.70
2022-09-09T09:46:28.326Z,3.27
2022-09-09T09:49:06.530Z,3.80
2022-09-09T09:51:34.268Z,4.50
2022-09-09T09:54:24.056Z,4.80
2022-09-09T09:56:54.527Z,5.43
2022-09-09T09:59:23.858Z,4.40
2022-09-09T10:02:16.301Z,4.23
2022-09-09T10:04:43.937Z,4.50
2022-09-09T10:07:17.249Z,4.27
2022-09-09T10:09:43.732Z,3.70
2022-09-09T10:12:27.107Z,3.67
2022-09-09T10:15:07.094Z,3.20
2022-09-09T10:17:40.551Z,2.20
2022-09-09T10:20:29.524Z,2.73
2022-09-09T10:23:31.952Z,2.20
2022-09-09T10:26:01.190Z,2.40
2022-09-09T10:28:34.376Z,1.80
2022-09-09T10:31:07.098Z,2.40
2022-09-09T10:33:50.727Z,2.37
2022-09-09T10:36:20.241Z,2.57
2022-09-09T10:38:47.694Z,1.73
2022-09-09T10:41:17.571Z,1.70
2022-09-09T10:44:00.476Z,2.50
2022-09-09T10:46:53.457Z,3.43
2022-09-09T10:49:34.257Z,3.20
2022-09-09T10:52:19.606Z,3.20
2022-09-09T10:54:46.081Z,3.00
2022-09-09T10:57:17.598Z,3.17
2022-09-09T10:59:48.575Z,3.53
2022-09-09T11:02:16.194Z,2.80
2022-09-09T11:04:45.915Z,2.30
2022-09-09T11:07:19.755Z,3.50
2022-09-09T11:09:49.471Z,2.90
2022-09-09T11:12:19.975Z,2.53
2022-09-09T11:14:58.611Z,2.53
2022-09-09T11:17:28.232Z,3.53
2022-09-09T11:19:55.836Z,2.80
2022-09-09T11:22:31.456Z,3.57
2022-09-09T11:24:58.041Z,2.87
2022-09-09T11:27:25.876Z,2.80
2022-09-09T11:29:53.511Z,3.07
2022-09-09T11:32:20.115Z,2.30
2022-09-09T11:34:52.847Z,2.30
2022-09-09T11:37:31.683Z,2.87
2022-09-09T11:40:09.621Z,2.43
2022-09-09T11:42:36.670Z,2.47
2022-09-09T11:45:12.480Z,2.40
2022-09-09T11:47:38.992Z,3.00
2022-09-09T11:50:28.367Z,2.00
2022-09-09T11:53:05.789Z,1.80
2022-09-09T11:55:37.920Z,2.03
2022-09-09T11:58:05.584Z,1.87
2022-09-09T12:00:53.321Z,2.00
2022-09-09T12:03:32.214Z,1.77
2022-09-09T12:05:59.917Z,1.67
2022-09-09T12:08:28.446Z,1.47
2022-09-09T12:11:00.506Z,1.70
2022-09-09T12:13:28.087Z,1.63
2022-09-09T12:15:54.726Z,1.20
2022-09-09T12:18:34.898Z,1.40
2022-09-09T12:21:13.336Z,1.60
2022-09-09T12:23:39.920Z,1.63
2022-09-09T12:26:16.706Z,1.87
2022-09-09T12:29:07.805Z,1.33
2022-09-09T12:31:37.976Z,1.80
2022-09-09T12:34:31.569Z,1.60
2022-09-09T12:37:27.521Z,1.67
2022-09-09T12:39:58.442Z,1.50
2022-09-09T12:42:25.711Z,1.70
2022-09-09T12:45:01.845Z,1.13
2022-09-09T12:47:37.414Z,1.30
2022-09-09T12:50:04.053Z,1.57
2022-09-09T12:52:33.328Z,1.40
2022-09-09T12:55:01.154Z,1.57
2022-09-09T12:57:35.636Z,1.67
2022-09-09T13:00:06.868Z,2.10
2022-09-09T13:02:33.429Z,2.23
2022-09-09T13:05:07.334Z,1.70
2022-09-09T13:07:33.814Z,1.80
2022-09-09T13:10:00.386Z,1.60
2022-09-09T13:12:26.968Z,1.73
2022-09-09T13:14:54.773Z,1.60
2022-09-09T13:17:25.794Z,2.10
2022-09-09T13:19:53.803Z,2.00
2022-09-09T13:22:22.756Z,1.87
2022-09-09T13:24:59.325Z,1.40
2022-09-09T13:27:39.677Z,1.90
2022-09-09T13:30:26.750Z,1.80
2022-09-09T13:33:03.750Z,1.63
2022-09-09T13:35:30.593Z,2.00
2022-09-09T13:37:57.527Z,1.37
2022-09-09T13:40:24.514Z,1.67
2022-09-09T13:42:59.032Z,1.20
2022-09-09T13:45:27.744Z,2.17
2022-09-09T13:47:58.910Z,1.20
2022-09-09T13:50:26.896Z,1.63
2022-09-09T13:52:54.760Z,1.57
2022-09-09T13:55:22.819Z,1.37
2022-09-09T13:57:57.001Z,1.37
2022-09-09T14:00:25.089Z,1.47
2022-09-09T14:02:52.173Z,1.30
2022-09-09T14:05:19.787Z,2.00
2022-09-09T14:07:52.488Z,1.20
2022-09-09T14:10:23.272Z,1.20
2022-09-09T14:12:49.739Z,1.10
2022-09-09T14:15:17.080Z,1.10
2022-09-09T14:17:44.292Z,1.37
2022-09-09T14:20:12.779Z,1.50
2022-09-09T14:22:40.247Z,1.03
2022-09-09T14:25:07.111Z,1.10
2022-09-09T14:27:33.666Z,1.20
2022-09-09T14:30:01.687Z,1.93
2022-09-09T14:32:28.305Z,1.20
2022-09-09T14:34:54.776Z,1.47
2022-09-09T14:37:21.692Z,1.40
2022-09-09T14:39:48.575Z,0.90
2022-09-09T14:42:15.111Z,0.90
2022-09-09T14:44:41.724Z,1.40
2022-09-09T14:47:09.047Z,1.23
2022-09-09T14:49:35.888Z,1.43
2022-09-09T14:52:02.688Z,1.40
2022-09-09T14:54:29.268Z,1.50
2022-09-09T14:56:55.735Z,1.30
2022-09-09T14:59:23.257Z,1.50
2022-09-09T15:01:49.755Z,1.10
2022-09-09T15:04:17.754Z,1.40
2022-09-09T15:06:48.030Z,1.03
2022-09-09T15:09:14.959Z,1.23
2022-09-09T15:11:41.788Z,1.10
2022-09-09T15:14:09.214Z,1.87
2022-09-09T15:16:35.827Z,1.50
2022-09-09T15:19:03.567Z,1.57
2022-09-09T15:21:31.973Z,1.07
2022-09-09T15:23:58.833Z,1.50
2022-09-09T15:26:25.903Z,1.40
2022-09-09T15:28:52.412Z,1.40
2022-09-09T15:31:23.193Z,1.50
2022-09-09T15:33:49.659Z,1.17
2022-09-09T15:36:20.914Z,1.17
2022-09-09T15:38:47.580Z,1.60
2022-09-09T15:41:14.631Z,1.97
2022-09-09T15:43:44.635Z,1.77
2022-09-09T15:46:31.440Z,1.63
2022-09-09T15:48:59.179Z,1.70
2022-09-09T15:51:43.722Z,1.60
2022-09-09T15:54:13.080Z,1.70
2022-09-09T15:56:39.712Z,1.67
2022-09-09T15:59:06.183Z,1.47
2022-09-09T16:01:32.760Z,1.57
2022-09-09T16:04:00.871Z,1.97
2022-09-09T16:06:29.253Z,1.50
2022-09-09T16:08:56.801Z,1.60
2022-09-09T16:11:25.117Z,1.60
2022-09-09T16:13:53.392Z,1.77
2022-09-09T16:16:22.946Z,1.33
2022-09-09T16:18:51.749Z,1.67
2022-09-09T16:21:18.168Z,1.40
2022-09-09T16:23:45.036Z,1.43
2022-09-09T16:26:15.837Z,1.80
2022-09-09T16:28:42.330Z,1.63
2022-09-09T16:31:11.162Z,1.30
2022-09-09T16:33:38.122Z,1.50
2022-09-09T16:36:13.065Z,1.33
2022-09-09T16:38:39.937Z,1.60
2022-09-09T16:41:07.164Z,1.30
2022-09-09T16:43:34.456Z,1.40
2022-09-09T16:46:04.409Z,1.70
2022-09-09T16:48:34.307Z,1.80
2022-09-09T16:51:05.819Z,2.20
2022-09-09T16:53:32.959Z,1.93
2022-09-09T16:55:59.492Z,1.50
2022-09-09T16:58:25.931Z,2.30
2022-09-09T17:00:58.356Z,1.90
2022-09-09T17:03:24.937Z,1.77
2022-09-09T17:05:51.688Z,2.33
2022-09-09T17:08:18.148Z,2.00
2022-09-09T17:10:44.711Z,1.63
2022-09-09T17:13:11.163Z,2.57
2022-09-09T17:15:43.611Z,1.80
2022-09-09T17:18:10.982Z,1.77
2022-09-09T17:20:46.447Z,4.57
2022-09-09T17:23:16.250Z,23.70
2022-09-09T17:25:42.989Z,11.73
2022-09-09T17:28:09.825Z,6.30
2022-09-09T17:30:37.571Z,4.60
2022-09-09T17:33:04.900Z,5.20
2022-09-09T17:35:31.777Z,4.07
2022-09-09T17:37:58.644Z,7.13
2022-09-09T17:40:25.411Z,1.90
2022-09-09T17:42:52.133Z,2.17
2022-09-09T17:45:18.955Z,2.10
2022-09-09T17:47:45.621Z,6.50
2022-09-09T17:50:13.711Z,3.40
2022-09-09T17:52:41.571Z,3.20
2022-09-09T17:55:10.016Z,2.90
2022-09-09T17:57:36.577Z,2.00
2022-09-09T18:00:03.363Z,2.93
2022-09-09T18:02:39.062Z,1.60
2022-09-09T18:05:05.876Z,2.00
2022-09-09T18:07:32.423Z,3.30
2022-09-09T18:09:59.580Z,3.00
2022-09-09T18:12:27.672Z,2.00
2022-09-09T18:14:54.182Z,2.00
2022-09-09T18:17:20.747Z,1.70
2022-09-09T18:19:47.188Z,3.00
2022-09-09T18:22:13.718Z,1.83
2022-09-09T18:24:41.400Z,1.90
2022-09-09T18:27:07.855Z,1.90
2022-09-09T18:29:34.311Z,1.77
2022-09-09T18:32:00.728Z,2.57
2022-09-09T18:34:28.799Z,2.67
2022-09-09T18:36:56.106Z,1.60
2022-09-09T18:39:27.704Z,2.40
2022-09-09T18:42:00.436Z,2.00
2022-09-09T18:44:28.567Z,1.50
2022-09-09T18:46:55.076Z,2.10
2022-09-09T18:49:22.160Z,2.53
2022-09-09T18:51:48.761Z,2.67
2022-09-09T18:54:19.848Z,1.70
2022-09-09T18:56:46.992Z,2.20
2022-09-09T18:59:14.768Z,1.73
2022-09-09T19:01:41.306Z,1.70
2022-09-09T19:04:08.515Z,1.73
2022-09-09T19:06:37.439Z,1.90
2022-09-09T19:09:04.847Z,1.73
2022-09-09T19:11:32.258Z,1.83
2022-09-09T19:14:00.108Z,1.80
2022-09-09T19:16:30.134Z,2.00
2022-09-09T19:19:01.124Z,2.10
2022-09-09T19:21:32.134Z,2.53
2022-09-09T19:24:06.650Z,1.97
2022-09-09T19:26:40.556Z,1.77
2022-09-09T19:29:11.876Z,1.80
2022-09-09T19:31:38.371Z,2.53
2022-09-09T19:34:04.952Z,1.90
2022-09-09T19:36:31.590Z,2.03
2022-09-09T19:38:58.517Z,1.77
2022-09-09T19:41:25.951Z,2.07
2022-09-09T19:44:03.179Z,3.00
2022-09-09T19:46:30.659Z,2.80
2022-09-09T19:48:57.757Z,2.73
2022-09-09T19:51:25.272Z,2.17
2022-09-09T19:53:53.330Z,2.77
2022-09-09T19:56:20.695Z,2.10
2022-09-09T19:58:47.566Z,2.40
2022-09-09T20:01:23.788Z,2.07
2022-09-09T20:03:52.277Z,2.17
2022-09-09T20:06:19.652Z,2.80
2022-09-09T20:08:47.794Z,2.33
2022-09-09T20:11:15.409Z,2.23
2022-09-09T20:13:42.851Z,2.00
2022-09-09T20:16:11.387Z,2.40
2022-09-09T20:18:39.317Z,1.67
2022-09-09T20:21:07.314Z,2.00
2022-09-09T20:23:34.201Z,2.03
2022-09-09T20:26:02.892Z,2.03
2022-09-09T20:28:29.819Z,2.70
2022-09-09T20:30:56.371Z,2.20
2022-09-09T20:33:22.868Z,2.93
2022-09-09T20:35:49.582Z,2.40
2022-09-09T20:38:16.081Z,2.37
2022-09-09T20:40:42.595Z,2.40
2022-09-09T20:43:12.509Z,2.60
2022-09-09T20:45:39.267Z,2.03
2022-09-09T20:48:06.084Z,2.57
2022-09-09T20:50:35.156Z,2.40
2022-09-09T20:53:01.648Z,3.03
2022-09-09T20:55:28.099Z,2.10
2022-09-09T20:57:54.967Z,2.30
2022-09-09T21:00:21.396Z,3.27
2022-09-09T21:02:47.848Z,2.30
2022-09-09T21:05:14.646Z,2.63
2022-09-09T21:07:41.083Z,2.60
2022-09-09T21:10:08.024Z,2.20
2022-09-09T21:12:34.478Z,2.73
2022-09-09T21:15:00.987Z,1.80
2022-09-09T21:17:27.470Z,2.10
2022-09-09T21:19:57.199Z,2.30
2022-09-09T21:22:23.934Z,3.20
2022-09-09T21:24:50.874Z,1.50
2022-09-09T21:27:17.277Z,1.90
2022-09-09T21:29:43.795Z,2.40
2022-09-09T21:32:10.271Z,2.47
2022-09-09T21:34:36.820Z,2.17
2022-09-09T21:37:03.298Z,2.17
2022-09-09T21:39:29.751Z,2.30
2022-09-09T21:41:56.891Z,2.53
2022-09-09T21:44:23.331Z,1.80
2022-09-09T21:46:49.747Z,2.50
2022-09-09T21:49:16.199Z,2.50
2022-09-09T21:51:42.681Z,2.07
2022-09-09T21:54:09.220Z,1.90
2022-09-09T21:56:35.805Z,2.80
2022-09-09T21:59:04.114Z,2.50
2022-09-09T22:01:33.119Z,2.60
2022-09-09T22:04:00.761Z,2.40
2022-09-09T22:06:27.521Z,2.07
2022-09-09T22:08:55.494Z,2.20
2022-09-09T22:11:22.489Z,2.47
2022-09-09T22:13:49.191Z,2.40
2022-09-09T22:16:17.090Z,2.40
2022-09-09T22:18:43.820Z,2.93
2022-09-09T22:21:14.168Z,2.57
2022-09-09T22:23:40.707Z,2.40
2022-09-09T22:26:07.204Z,2.90
2022-09-09T22:28:34.309Z,2.10
2022-09-09T22:31:01.332Z,2.57
2022-09-09T22:33:28.041Z,2.33
2022-09-09T22:35:54.689Z,2.00
2022-09-09T22:38:22.255Z,2.63
2022-09-09T22:40:49.286Z,2.73
2022-09-09T22:43:17.147Z,2.03
2022-09-09T22:45:43.955Z,1.83
2022-09-09T22:48:11.763Z,3.30
2022-09-09T22:50:42.059Z,2.27
2022-09-09T22:53:10.031Z,2.10
2022-09-09T22:55:36.983Z,2.90
2022-09-09T22:58:03.439Z,2.27
2022-09-09T23:00:29.889Z,2.87
2022-09-09T23:02:56.356Z,1.80
2022-09-09T23:05:24.439Z,1.90
2022-09-09T23:07:53.290Z,2.40
2022-09-09T23:10:19.961Z,2.10
2022-09-09T23:12:48.919Z,2.00
2022-09-09T23:15:15.372Z,2.57
2022-09-09T23:17:42.288Z,2.60
2022-09-09T23:20:09.852Z,2.53
2022-09-09T23:22:37.083Z,2.47
2022-09-09T23:25:04.124Z,7.93
2022-09-09T23:27:31.318Z,6.70
2022-09-09T23:29:57.736Z,5.17
2022-09-09T23:32:24.307Z,4.77
2022-09-09T23:34:50.964Z,3.10
2022-09-09T23:37:19.021Z,2.70
2022-09-09T23:39:45.554Z,2.67
2022-09-09T23:42:12.355Z,2.40
2022-09-09T23:44:39.579Z,3.17
2022-09-09T23:47:06.823Z,3.77
2022-09-09T23:49:34.134Z,2.80
2022-09-09T23:52:03.497Z,2.50
2022-09-09T23:54:30.179Z,2.93
2022-09-09T23:56:56.705Z,2.50
2022-09-09T23:59:23.219Z,2.20
